CheckWX is a tool to help pilots better visualize weather data.  It is not intended as a substitute for an official pre-flight weather briefing.

09:40:10 UTC

KSFF METAR
Felts Field Airport
Spokane, Washington, USA
Current

47 mins ago

KSFF 210853Z AUTO 00000KT 10SM CLR 09/08 A3007 RMK AO2 SLP178 T00940083 53008
Observed
Sep-21 @ 08:53 UTC
Visibility
10 SM
Flight Rules
VFR
Cloud Levels
  • Clear skies
Temperature
C / 48°F
Dewpoint
C / 46°F
Humidity
94%
Altimeter
30.07" Hg
Pressure
1018.32 hPa
Previous

2 hours ago

KSFF 210753Z AUTO 00000KT 10SM CLR 10/09 A3005 RMK AO2 SLP173 T01000089 402000100 TSNO
Observed
Sep-21 @ 07:53 UTC
Visibility
10 SM
Flight Rules
VFR
Cloud Levels
  • Clear skies
Temperature
10°C / 50°F
Dewpoint
C / 48°F
Humidity
94%
Altimeter
30.05" Hg
Pressure
1017.62 hPa
Previous

3 hours ago

KSFF 210653Z AUTO 00000KT 10SM CLR 12/09 A3005 RMK AO2 SLP171 T01170094
Observed
Sep-21 @ 06:53 UTC
Visibility
10 SM
Flight Rules
VFR
Cloud Levels
  • Clear skies
Temperature
12°C / 54°F
Dewpoint
C / 48°F
Humidity
82%
Altimeter
30.05" Hg
Pressure
1017.62 hPa